sensor_id;sensor_type;location;lat;lon;timestamp;P1;durP1;ratioP1;P2;durP2;ratioP2
20649;SDS011;10484;48.736;9.332;2023-01-29T00:01:43;9.63;;;6.13;;
20649;SDS011;10484;48.736;9.332;2023-01-29T00:04:09;7.60;;;5.57;;
20649;SDS011;10484;48.736;9.332;2023-01-29T00:06:34;12.50;;;6.33;;
20649;SDS011;10484;48.736;9.332;2023-01-29T00:09:00;9.20;;;6.63;;
20649;SDS011;10484;48.736;9.332;2023-01-29T00:11:26;8.90;;;6.20;;
20649;SDS011;10484;48.736;9.332;2023-01-29T00:13:52;9.73;;;6.83;;
20649;SDS011;10484;48.736;9.332;2023-01-29T00:16:17;8.77;;;6.03;;
20649;SDS011;10484;48.736;9.332;2023-01-29T00:18:43;10.67;;;6.93;;
20649;SDS011;10484;48.736;9.332;2023-01-29T00:21:13;6.57;;;5.60;;
20649;SDS011;10484;48.736;9.332;2023-01-29T00:23:40;7.53;;;5.45;;
20649;SDS011;10484;48.736;9.332;2023-01-29T00:26:06;9.05;;;6.32;;
20649;SDS011;10484;48.736;9.332;2023-01-29T00:28:33;11.63;;;5.40;;
20649;SDS011;10484;48.736;9.332;2023-01-29T00:31:05;7.25;;;5.18;;
20649;SDS011;10484;48.736;9.332;2023-01-29T00:33:32;8.85;;;5.60;;
20649;SDS011;10484;48.736;9.332;2023-01-29T00:35:57;9.93;;;5.33;;
20649;SDS011;10484;48.736;9.332;2023-01-29T00:38:27;10.57;;;5.65;;
20649;SDS011;10484;48.736;9.332;2023-01-29T00:40:52;7.00;;;5.20;;
20649;SDS011;10484;48.736;9.332;2023-01-29T00:43:36;9.13;;;5.53;;
20649;SDS011;10484;48.736;9.332;2023-01-29T00:46:20;7.55;;;4.75;;
20649;SDS011;10484;48.736;9.332;2023-01-29T00:48:46;12.33;;;5.43;;
20649;SDS011;10484;48.736;9.332;2023-01-29T00:51:12;6.93;;;5.30;;
20649;SDS011;10484;48.736;9.332;2023-01-29T00:53:37;9.97;;;5.50;;
20649;SDS011;10484;48.736;9.332;2023-01-29T00:56:03;8.33;;;5.80;;
20649;SDS011;10484;48.736;9.332;2023-01-29T00:58:29;8.50;;;5.90;;
20649;SDS011;10484;48.736;9.332;2023-01-29T01:00:58;8.57;;;5.28;;
20649;SDS011;10484;48.736;9.332;2023-01-29T01:03:25;7.30;;;5.38;;
20649;SDS011;10484;48.736;9.332;2023-01-29T01:06:00;8.50;;;5.77;;
20649;SDS011;10484;48.736;9.332;2023-01-29T01:08:28;9.95;;;5.43;;
20649;SDS011;10484;48.736;9.332;2023-01-29T01:11:12;7.68;;;5.75;;
20649;SDS011;10484;48.736;9.332;2023-01-29T01:13:38;8.53;;;5.17;;
20649;SDS011;10484;48.736;9.332;2023-01-29T01:16:10;8.40;;;5.23;;
20649;SDS011;10484;48.736;9.332;2023-01-29T01:18:40;8.88;;;5.88;;
20649;SDS011;10484;48.736;9.332;2023-01-29T01:21:06;9.18;;;5.43;;
20649;SDS011;10484;48.736;9.332;2023-01-29T01:23:32;8.30;;;5.13;;
20649;SDS011;10484;48.736;9.332;2023-01-29T01:25:58;6.32;;;4.60;;
20649;SDS011;10484;48.736;9.332;2023-01-29T01:28:24;7.60;;;5.32;;
20649;SDS011;10484;48.736;9.332;2023-01-29T01:30:51;6.45;;;4.30;;
20649;SDS011;10484;48.736;9.332;2023-01-29T01:33:16;8.63;;;4.57;;
20649;SDS011;10484;48.736;9.332;2023-01-29T01:35:42;8.43;;;4.60;;
20649;SDS011;10484;48.736;9.332;2023-01-29T01:38:08;8.00;;;5.10;;
20649;SDS011;10484;48.736;9.332;2023-01-29T01:40:34;6.77;;;4.67;;
20649;SDS011;10484;48.736;9.332;2023-01-29T01:42:59;6.97;;;4.47;;
20649;SDS011;10484;48.736;9.332;2023-01-29T01:45:27;7.85;;;4.70;;
20649;SDS011;10484;48.736;9.332;2023-01-29T01:50:49;8.05;;;5.35;;
20649;SDS011;10484;48.736;9.332;2023-01-29T01:53:28;7.82;;;4.75;;
20649;SDS011;10484;48.736;9.332;2023-01-29T01:56:11;6.18;;;4.63;;
20649;SDS011;10484;48.736;9.332;2023-01-29T02:01:36;8.65;;;5.78;;
20649;SDS011;10484;48.736;9.332;2023-01-29T02:04:07;8.40;;;4.55;;
20649;SDS011;10484;48.736;9.332;2023-01-29T02:06:58;7.70;;;4.88;;
20649;SDS011;10484;48.736;9.332;2023-01-29T02:09:46;6.30;;;5.28;;
20649;SDS011;10484;48.736;9.332;2023-01-29T02:12:20;7.60;;;5.35;;
20649;SDS011;10484;48.736;9.332;2023-01-29T02:14:47;8.32;;;5.72;;
20649;SDS011;10484;48.736;9.332;2023-01-29T02:17:13;6.13;;;4.30;;
20649;SDS011;10484;48.736;9.332;2023-01-29T02:19:46;7.25;;;5.03;;
20649;SDS011;10484;48.736;9.332;2023-01-29T02:31:08;5.47;;;4.40;;
20649;SDS011;10484;48.736;9.332;2023-01-29T02:36:38;7.30;;;4.82;;
20649;SDS011;10484;48.736;9.332;2023-01-29T02:39:21;9.55;;;5.55;;
20649;SDS011;10484;48.736;9.332;2023-01-29T02:47:17;6.30;;;4.75;;
20649;SDS011;10484;48.736;9.332;2023-01-29T02:49:51;7.85;;;5.45;;
20649;SDS011;10484;48.736;9.332;2023-01-29T02:55:34;5.90;;;4.90;;
20649;SDS011;10484;48.736;9.332;2023-01-29T02:58:10;6.57;;;4.97;;
20649;SDS011;10484;48.736;9.332;2023-01-29T03:00:44;9.20;;;5.38;;
20649;SDS011;10484;48.736;9.332;2023-01-29T03:03:20;9.57;;;5.63;;
20649;SDS011;10484;48.736;9.332;2023-01-29T03:06:03;6.45;;;5.00;;
20649;SDS011;10484;48.736;9.332;2023-01-29T03:08:31;12.77;;;4.90;;
20649;SDS011;10484;48.736;9.332;2023-01-29T03:11:07;8.05;;;6.00;;
20649;SDS011;10484;48.736;9.332;2023-01-29T03:13:57;6.20;;;5.10;;
20649;SDS011;10484;48.736;9.332;2023-01-29T03:19:08;7.47;;;5.05;;
20649;SDS011;10484;48.736;9.332;2023-01-29T03:21:56;7.68;;;5.18;;
20649;SDS011;10484;48.736;9.332;2023-01-29T03:24:34;9.80;;;5.60;;
20649;SDS011;10484;48.736;9.332;2023-01-29T03:27:27;9.98;;;4.97;;
20649;SDS011;10484;48.736;9.332;2023-01-29T03:30:16;7.85;;;4.80;;
20649;SDS011;10484;48.736;9.332;2023-01-29T03:33:03;8.05;;;5.60;;
20649;SDS011;10484;48.736;9.332;2023-01-29T03:35:35;8.02;;;4.40;;
20649;SDS011;10484;48.736;9.332;2023-01-29T03:38:06;6.55;;;4.95;;
20649;SDS011;10484;48.736;9.332;2023-01-29T03:40:36;6.45;;;4.97;;
20649;SDS011;10484;48.736;9.332;2023-01-29T03:43:12;7.88;;;4.82;;
20649;SDS011;10484;48.736;9.332;2023-01-29T03:54:07;5.72;;;4.07;;
20649;SDS011;10484;48.736;9.332;2023-01-29T04:02:09;7.38;;;4.35;;
20649;SDS011;10484;48.736;9.332;2023-01-29T04:04:43;7.22;;;5.05;;
20649;SDS011;10484;48.736;9.332;2023-01-29T04:07:13;6.90;;;4.80;;
20649;SDS011;10484;48.736;9.332;2023-01-29T04:09:47;5.85;;;4.72;;
20649;SDS011;10484;48.736;9.332;2023-01-29T04:12:19;6.90;;;4.90;;
20649;SDS011;10484;48.736;9.332;2023-01-29T04:14:50;8.52;;;4.95;;
20649;SDS011;10484;48.736;9.332;2023-01-29T04:17:20;6.05;;;4.25;;
20649;SDS011;10484;48.736;9.332;2023-01-29T04:19:49;7.72;;;4.85;;
20649;SDS011;10484;48.736;9.332;2023-01-29T04:24:46;8.25;;;4.90;;
20649;SDS011;10484;48.736;9.332;2023-01-29T04:29:46;7.30;;;5.17;;
20649;SDS011;10484;48.736;9.332;2023-01-29T04:32:49;5.72;;;4.30;;
20649;SDS011;10484;48.736;9.332;2023-01-29T04:43:09;8.55;;;4.22;;
20649;SDS011;10484;48.736;9.332;2023-01-29T04:48:26;5.00;;;4.10;;
20649;SDS011;10484;48.736;9.332;2023-01-29T04:51:12;6.68;;;3.60;;
20649;SDS011;10484;48.736;9.332;2023-01-29T04:53:47;9.85;;;5.65;;
20649;SDS011;10484;48.736;9.332;2023-01-29T04:59:43;6.82;;;5.05;;
20649;SDS011;10484;48.736;9.332;2023-01-29T05:02:13;8.35;;;5.30;;
20649;SDS011;10484;48.736;9.332;2023-01-29T05:04:39;8.98;;;5.38;;
20649;SDS011;10484;48.736;9.332;2023-01-29T05:07:08;8.57;;;5.55;;
20649;SDS011;10484;48.736;9.332;2023-01-29T05:09:36;5.88;;;4.57;;
20649;SDS011;10484;48.736;9.332;2023-01-29T05:12:04;7.88;;;4.25;;
20649;SDS011;10484;48.736;9.332;2023-01-29T05:14:32;12.38;;;5.70;;
20649;SDS011;10484;48.736;9.332;2023-01-29T05:16:59;7.03;;;4.85;;
20649;SDS011;10484;48.736;9.332;2023-01-29T05:19:28;9.07;;;5.63;;
20649;SDS011;10484;48.736;9.332;2023-01-29T05:21:54;7.90;;;5.73;;
20649;SDS011;10484;48.736;9.332;2023-01-29T05:24:23;5.90;;;4.25;;
20649;SDS011;10484;48.736;9.332;2023-01-29T05:26:52;6.93;;;5.00;;
20649;SDS011;10484;48.736;9.332;2023-01-29T05:29:37;6.15;;;5.10;;
20649;SDS011;10484;48.736;9.332;2023-01-29T05:32:09;8.93;;;5.50;;
20649;SDS011;10484;48.736;9.332;2023-01-29T05:34:34;6.40;;;4.30;;
20649;SDS011;10484;48.736;9.332;2023-01-29T05:37:00;7.40;;;4.73;;
20649;SDS011;10484;48.736;9.332;2023-01-29T05:39:25;6.87;;;4.70;;
20649;SDS011;10484;48.736;9.332;2023-01-29T05:41:51;7.30;;;5.33;;
20649;SDS011;10484;48.736;9.332;2023-01-29T05:44:16;6.93;;;5.10;;
20649;SDS011;10484;48.736;9.332;2023-01-29T05:46:42;9.27;;;4.60;;
20649;SDS011;10484;48.736;9.332;2023-01-29T05:49:08;6.72;;;4.53;;
20649;SDS011;10484;48.736;9.332;2023-01-29T05:51:34;6.60;;;4.80;;
20649;SDS011;10484;48.736;9.332;2023-01-29T05:53:59;6.73;;;4.43;;
20649;SDS011;10484;48.736;9.332;2023-01-29T05:56:25;10.57;;;5.60;;
20649;SDS011;10484;48.736;9.332;2023-01-29T05:58:51;6.33;;;4.80;;
20649;SDS011;10484;48.736;9.332;2023-01-29T06:01:18;7.87;;;5.17;;
20649;SDS011;10484;48.736;9.332;2023-01-29T06:03:46;10.55;;;5.35;;
20649;SDS011;10484;48.736;9.332;2023-01-29T06:06:12;6.53;;;5.17;;
20649;SDS011;10484;48.736;9.332;2023-01-29T06:08:38;7.10;;;5.88;;
20649;SDS011;10484;48.736;9.332;2023-01-29T06:11:08;8.90;;;6.35;;
20649;SDS011;10484;48.736;9.332;2023-01-29T06:13:35;7.07;;;5.10;;
20649;SDS011;10484;48.736;9.332;2023-01-29T06:16:07;8.30;;;5.30;;
20649;SDS011;10484;48.736;9.332;2023-01-29T06:18:37;10.57;;;5.40;;
20649;SDS011;10484;48.736;9.332;2023-01-29T06:21:04;5.68;;;4.45;;
20649;SDS011;10484;48.736;9.332;2023-01-29T06:23:31;9.45;;;4.95;;
20649;SDS011;10484;48.736;9.332;2023-01-29T06:25:58;7.20;;;5.40;;
20649;SDS011;10484;48.736;9.332;2023-01-29T06:28:25;13.07;;;5.38;;
20649;SDS011;10484;48.736;9.332;2023-01-29T06:30:50;8.17;;;5.10;;
20649;SDS011;10484;48.736;9.332;2023-01-29T06:33:16;5.77;;;4.20;;
20649;SDS011;10484;48.736;9.332;2023-01-29T06:35:41;9.43;;;5.80;;
20649;SDS011;10484;48.736;9.332;2023-01-29T06:38:08;7.70;;;5.07;;
20649;SDS011;10484;48.736;9.332;2023-01-29T06:40:34;8.20;;;5.83;;
20649;SDS011;10484;48.736;9.332;2023-01-29T06:43:02;8.05;;;5.60;;
20649;SDS011;10484;48.736;9.332;2023-01-29T06:45:27;9.27;;;5.07;;
20649;SDS011;10484;48.736;9.332;2023-01-29T06:47:53;7.97;;;5.07;;
20649;SDS011;10484;48.736;9.332;2023-01-29T06:50:19;7.68;;;5.20;;
20649;SDS011;10484;48.736;9.332;2023-01-29T06:52:45;7.67;;;5.20;;
20649;SDS011;10484;48.736;9.332;2023-01-29T06:55:11;6.03;;;4.77;;
20649;SDS011;10484;48.736;9.332;2023-01-29T06:57:36;7.03;;;4.70;;
20649;SDS011;10484;48.736;9.332;2023-01-29T07:00:02;7.10;;;4.90;;
20649;SDS011;10484;48.736;9.332;2023-01-29T07:02:30;6.97;;;5.57;;
20649;SDS011;10484;48.736;9.332;2023-01-29T07:04:55;8.50;;;5.63;;
20649;SDS011;10484;48.736;9.332;2023-01-29T07:07:21;7.13;;;5.77;;
20649;SDS011;10484;48.736;9.332;2023-01-29T07:09:46;9.77;;;5.57;;
20649;SDS011;10484;48.736;9.332;2023-01-29T07:12:12;11.87;;;6.00;;
20649;SDS011;10484;48.736;9.332;2023-01-29T07:14:38;8.50;;;5.47;;
20649;SDS011;10484;48.736;9.332;2023-01-29T07:17:03;10.33;;;6.03;;
20649;SDS011;10484;48.736;9.332;2023-01-29T07:19:29;8.47;;;5.90;;
20649;SDS011;10484;48.736;9.332;2023-01-29T07:21:54;6.97;;;5.00;;
20649;SDS011;10484;48.736;9.332;2023-01-29T07:24:20;7.03;;;5.60;;
20649;SDS011;10484;48.736;9.332;2023-01-29T07:26:46;7.13;;;5.30;;
20649;SDS011;10484;48.736;9.332;2023-01-29T07:29:12;7.53;;;5.00;;
20649;SDS011;10484;48.736;9.332;2023-01-29T07:31:37;6.53;;;4.70;;
20649;SDS011;10484;48.736;9.332;2023-01-29T07:34:03;9.40;;;5.83;;
20649;SDS011;10484;48.736;9.332;2023-01-29T07:36:29;8.00;;;5.30;;
20649;SDS011;10484;48.736;9.332;2023-01-29T07:38:54;8.63;;;5.47;;
20649;SDS011;10484;48.736;9.332;2023-01-29T07:41:20;8.23;;;5.30;;
20649;SDS011;10484;48.736;9.332;2023-01-29T07:43:46;7.97;;;5.83;;
20649;SDS011;10484;48.736;9.332;2023-01-29T07:46:12;12.38;;;6.10;;
20649;SDS011;10484;48.736;9.332;2023-01-29T07:48:38;9.23;;;5.80;;
20649;SDS011;10484;48.736;9.332;2023-01-29T07:51:03;8.27;;;5.57;;
20649;SDS011;10484;48.736;9.332;2023-01-29T07:53:29;7.73;;;5.83;;
20649;SDS011;10484;48.736;9.332;2023-01-29T07:55:55;8.60;;;5.97;;
20649;SDS011;10484;48.736;9.332;2023-01-29T07:58:21;10.40;;;6.18;;
20649;SDS011;10484;48.736;9.332;2023-01-29T08:00:47;9.37;;;6.10;;
20649;SDS011;10484;48.736;9.332;2023-01-29T08:03:14;9.00;;;5.60;;
20649;SDS011;10484;48.736;9.332;2023-01-29T08:05:42;8.35;;;5.45;;
20649;SDS011;10484;48.736;9.332;2023-01-29T08:08:08;10.50;;;5.60;;
20649;SDS011;10484;48.736;9.332;2023-01-29T08:10:35;7.93;;;5.70;;
20649;SDS011;10484;48.736;9.332;2023-01-29T08:13:02;7.03;;;5.20;;
20649;SDS011;10484;48.736;9.332;2023-01-29T08:15:28;7.18;;;5.35;;
20649;SDS011;10484;48.736;9.332;2023-01-29T08:17:57;8.88;;;5.75;;
20649;SDS011;10484;48.736;9.332;2023-01-29T08:20:24;8.48;;;5.35;;
20649;SDS011;10484;48.736;9.332;2023-01-29T08:22:57;10.63;;;6.60;;
20649;SDS011;10484;48.736;9.332;2023-01-29T08:25:30;9.25;;;5.50;;
20649;SDS011;10484;48.736;9.332;2023-01-29T08:27:56;8.90;;;5.80;;
20649;SDS011;10484;48.736;9.332;2023-01-29T08:30:26;8.63;;;5.75;;
20649;SDS011;10484;48.736;9.332;2023-01-29T08:32:53;8.60;;;5.70;;
20649;SDS011;10484;48.736;9.332;2023-01-29T08:35:19;8.40;;;5.90;;
20649;SDS011;10484;48.736;9.332;2023-01-29T08:37:52;9.55;;;5.97;;
20649;SDS011;10484;48.736;9.332;2023-01-29T08:40:19;10.15;;;6.03;;
20649;SDS011;10484;48.736;9.332;2023-01-29T08:42:45;9.00;;;6.40;;
20649;SDS011;10484;48.736;9.332;2023-01-29T08:45:10;8.07;;;6.53;;
20649;SDS011;10484;48.736;9.332;2023-01-29T08:47:36;10.50;;;7.20;;
20649;SDS011;10484;48.736;9.332;2023-01-29T08:50:02;11.67;;;7.57;;
20649;SDS011;10484;48.736;9.332;2023-01-29T08:52:28;10.18;;;7.88;;
20649;SDS011;10484;48.736;9.332;2023-01-29T08:54:53;10.90;;;7.17;;
20649;SDS011;10484;48.736;9.332;2023-01-29T08:57:19;15.23;;;6.47;;
20649;SDS011;10484;48.736;9.332;2023-01-29T08:59:45;12.43;;;8.48;;
20649;SDS011;10484;48.736;9.332;2023-01-29T09:02:11;9.30;;;7.00;;
20649;SDS011;10484;48.736;9.332;2023-01-29T09:04:36;7.77;;;5.93;;
20649;SDS011;10484;48.736;9.332;2023-01-29T09:07:02;9.67;;;6.77;;
20649;SDS011;10484;48.736;9.332;2023-01-29T09:09:27;11.90;;;6.73;;
20649;SDS011;10484;48.736;9.332;2023-01-29T09:11:53;8.87;;;5.93;;
20649;SDS011;10484;48.736;9.332;2023-01-29T09:14:19;10.40;;;5.77;;
20649;SDS011;10484;48.736;9.332;2023-01-29T09:16:45;10.27;;;5.80;;
20649;SDS011;10484;48.736;9.332;2023-01-29T09:19:10;9.17;;;6.30;;
20649;SDS011;10484;48.736;9.332;2023-01-29T09:21:36;8.63;;;6.37;;
20649;SDS011;10484;48.736;9.332;2023-01-29T09:24:01;9.80;;;7.43;;
20649;SDS011;10484;48.736;9.332;2023-01-29T09:26:27;12.00;;;6.77;;
20649;SDS011;10484;48.736;9.332;2023-01-29T09:28:52;13.50;;;7.30;;
20649;SDS011;10484;48.736;9.332;2023-01-29T09:31:19;10.35;;;6.03;;
20649;SDS011;10484;48.736;9.332;2023-01-29T09:33:44;7.33;;;5.77;;
20649;SDS011;10484;48.736;9.332;2023-01-29T09:36:10;10.93;;;7.20;;
20649;SDS011;10484;48.736;9.332;2023-01-29T09:38:36;9.87;;;6.63;;
20649;SDS011;10484;48.736;9.332;2023-01-29T09:43:38;12.15;;;8.35;;
20649;SDS011;10484;48.736;9.332;2023-01-29T09:46:37;9.50;;;6.28;;
20649;SDS011;10484;48.736;9.332;2023-01-29T09:49:14;10.00;;;6.93;;
20649;SDS011;10484;48.736;9.332;2023-01-29T09:51:50;10.27;;;6.50;;
20649;SDS011;10484;48.736;9.332;2023-01-29T09:54:23;9.00;;;6.43;;
20649;SDS011;10484;48.736;9.332;2023-01-29T09:56:53;10.35;;;6.50;;
20649;SDS011;10484;48.736;9.332;2023-01-29T09:59:21;13.02;;;7.40;;
20649;SDS011;10484;48.736;9.332;2023-01-29T10:04:41;7.15;;;5.80;;
20649;SDS011;10484;48.736;9.332;2023-01-29T10:07:17;10.85;;;6.40;;
20649;SDS011;10484;48.736;9.332;2023-01-29T10:10:10;10.45;;;6.85;;
20649;SDS011;10484;48.736;9.332;2023-01-29T10:12:50;11.00;;;6.75;;
20649;SDS011;10484;48.736;9.332;2023-01-29T10:23:42;11.03;;;7.70;;
20649;SDS011;10484;48.736;9.332;2023-01-29T10:26:40;10.90;;;6.45;;
20649;SDS011;10484;48.736;9.332;2023-01-29T10:29:06;11.17;;;7.73;;
20649;SDS011;10484;48.736;9.332;2023-01-29T10:31:36;9.82;;;7.13;;
20649;SDS011;10484;48.736;9.332;2023-01-29T10:34:13;10.27;;;7.50;;
20649;SDS011;10484;48.736;9.332;2023-01-29T10:36:54;10.75;;;7.13;;
20649;SDS011;10484;48.736;9.332;2023-01-29T10:39:21;9.60;;;6.60;;
20649;SDS011;10484;48.736;9.332;2023-01-29T10:47:33;10.52;;;7.45;;
20649;SDS011;10484;48.736;9.332;2023-01-29T10:55:55;11.20;;;7.05;;
20649;SDS011;10484;48.736;9.332;2023-01-29T10:58:35;10.85;;;7.00;;
20649;SDS011;10484;48.736;9.332;2023-01-29T11:01:07;8.95;;;7.00;;
20649;SDS011;10484;48.736;9.332;2023-01-29T11:03:36;11.75;;;8.05;;
20649;SDS011;10484;48.736;9.332;2023-01-29T11:06:18;8.73;;;6.32;;
20649;SDS011;10484;48.736;9.332;2023-01-29T11:14:46;9.73;;;6.65;;
20649;SDS011;10484;48.736;9.332;2023-01-29T11:17:23;10.95;;;7.38;;
20649;SDS011;10484;48.736;9.332;2023-01-29T11:19:50;10.10;;;6.85;;
20649;SDS011;10484;48.736;9.332;2023-01-29T11:22:20;11.75;;;7.43;;
20649;SDS011;10484;48.736;9.332;2023-01-29T11:27:57;10.88;;;7.68;;
20649;SDS011;10484;48.736;9.332;2023-01-29T11:30:32;10.25;;;7.28;;
20649;SDS011;10484;48.736;9.332;2023-01-29T11:33:18;8.85;;;7.30;;
20649;SDS011;10484;48.736;9.332;2023-01-29T11:35:47;13.77;;;7.95;;
20649;SDS011;10484;48.736;9.332;2023-01-29T11:40:45;13.68;;;7.95;;
20649;SDS011;10484;48.736;9.332;2023-01-29T11:45:52;9.63;;;7.05;;
20649;SDS011;10484;48.736;9.332;2023-01-29T11:48:20;10.02;;;6.50;;
20649;SDS011;10484;48.736;9.332;2023-01-29T11:50:52;13.35;;;8.82;;
20649;SDS011;10484;48.736;9.332;2023-01-29T11:55:55;7.85;;;5.72;;
20649;SDS011;10484;48.736;9.332;2023-01-29T11:58:30;10.10;;;6.83;;
20649;SDS011;10484;48.736;9.332;2023-01-29T12:00:58;8.40;;;6.80;;
20649;SDS011;10484;48.736;9.332;2023-01-29T12:03:35;7.88;;;6.13;;
20649;SDS011;10484;48.736;9.332;2023-01-29T12:06:19;10.80;;;7.75;;
20649;SDS011;10484;48.736;9.332;2023-01-29T12:08:56;8.63;;;6.40;;
20649;SDS011;10484;48.736;9.332;2023-01-29T12:11:28;8.98;;;7.07;;
20649;SDS011;10484;48.736;9.332;2023-01-29T12:13:56;8.65;;;5.72;;
20649;SDS011;10484;48.736;9.332;2023-01-29T12:16:28;8.70;;;6.00;;
20649;SDS011;10484;48.736;9.332;2023-01-29T12:19:17;7.85;;;5.82;;
20649;SDS011;10484;48.736;9.332;2023-01-29T12:21:48;9.45;;;7.05;;
20649;SDS011;10484;48.736;9.332;2023-01-29T12:24:37;9.40;;;6.85;;
20649;SDS011;10484;48.736;9.332;2023-01-29T12:27:14;9.55;;;6.20;;
20649;SDS011;10484;48.736;9.332;2023-01-29T12:32:33;9.27;;;6.18;;
20649;SDS011;10484;48.736;9.332;2023-01-29T12:35:17;7.85;;;5.82;;
20649;SDS011;10484;48.736;9.332;2023-01-29T12:38:03;9.30;;;5.78;;
20649;SDS011;10484;48.736;9.332;2023-01-29T12:40:38;8.80;;;5.72;;
20649;SDS011;10484;48.736;9.332;2023-01-29T12:43:46;10.65;;;5.88;;
20649;SDS011;10484;48.736;9.332;2023-01-29T12:46:19;8.70;;;5.22;;
20649;SDS011;10484;48.736;9.332;2023-01-29T12:48:50;7.13;;;4.35;;
20649;SDS011;10484;48.736;9.332;2023-01-29T12:51:20;6.95;;;5.35;;
20649;SDS011;10484;48.736;9.332;2023-01-29T12:53:56;9.13;;;5.75;;
20649;SDS011;10484;48.736;9.332;2023-01-29T12:56:31;12.52;;;5.63;;
20649;SDS011;10484;48.736;9.332;2023-01-29T12:58:59;9.10;;;5.40;;
20649;SDS011;10484;48.736;9.332;2023-01-29T13:01:40;9.15;;;6.03;;
20649;SDS011;10484;48.736;9.332;2023-01-29T13:04:13;6.25;;;4.63;;
20649;SDS011;10484;48.736;9.332;2023-01-29T13:06:54;8.02;;;5.35;;
20649;SDS011;10484;48.736;9.332;2023-01-29T13:09:26;4.75;;;4.28;;
20649;SDS011;10484;48.736;9.332;2023-01-29T13:12:04;8.50;;;5.38;;
20649;SDS011;10484;48.736;9.332;2023-01-29T13:14:39;9.27;;;5.63;;
20649;SDS011;10484;48.736;9.332;2023-01-29T13:17:14;5.63;;;4.75;;
20649;SDS011;10484;48.736;9.332;2023-01-29T13:20:02;9.15;;;5.40;;
20649;SDS011;10484;48.736;9.332;2023-01-29T13:22:35;8.10;;;4.93;;
20649;SDS011;10484;48.736;9.332;2023-01-29T13:25:03;5.85;;;4.20;;
20649;SDS011;10484;48.736;9.332;2023-01-29T13:27:35;6.00;;;4.40;;
20649;SDS011;10484;48.736;9.332;2023-01-29T13:30:01;9.02;;;4.60;;
20649;SDS011;10484;48.736;9.332;2023-01-29T13:32:29;5.88;;;5.28;;
20649;SDS011;10484;48.736;9.332;2023-01-29T13:35:00;6.95;;;4.80;;
20649;SDS011;10484;48.736;9.332;2023-01-29T13:37:35;5.22;;;4.70;;
20649;SDS011;10484;48.736;9.332;2023-01-29T13:40:05;7.40;;;4.50;;
20649;SDS011;10484;48.736;9.332;2023-01-29T13:42:46;7.80;;;5.15;;
20649;SDS011;10484;48.736;9.332;2023-01-29T13:45:18;9.25;;;6.18;;
20649;SDS011;10484;48.736;9.332;2023-01-29T13:47:46;4.57;;;3.80;;
20649;SDS011;10484;48.736;9.332;2023-01-29T13:52:45;5.78;;;4.18;;
20649;SDS011;10484;48.736;9.332;2023-01-29T13:55:31;7.95;;;4.43;;
20649;SDS011;10484;48.736;9.332;2023-01-29T13:58:00;6.05;;;4.68;;
20649;SDS011;10484;48.736;9.332;2023-01-29T14:05:42;7.60;;;4.53;;
20649;SDS011;10484;48.736;9.332;2023-01-29T14:13:43;8.77;;;5.45;;
20649;SDS011;10484;48.736;9.332;2023-01-29T14:18:43;7.33;;;5.73;;
20649;SDS011;10484;48.736;9.332;2023-01-29T14:21:24;8.70;;;5.00;;
20649;SDS011;10484;48.736;9.332;2023-01-29T14:23:54;7.15;;;5.10;;
20649;SDS011;10484;48.736;9.332;2023-01-29T14:28:57;6.70;;;4.90;;
20649;SDS011;10484;48.736;9.332;2023-01-29T14:31:38;7.85;;;5.75;;
20649;SDS011;10484;48.736;9.332;2023-01-29T14:34:17;7.10;;;5.30;;
20649;SDS011;10484;48.736;9.332;2023-01-29T14:37:19;8.00;;;5.80;;
20649;SDS011;10484;48.736;9.332;2023-01-29T14:39:46;8.95;;;5.32;;
20649;SDS011;10484;48.736;9.332;2023-01-29T14:42:37;8.00;;;5.53;;
20649;SDS011;10484;48.736;9.332;2023-01-29T14:45:23;10.13;;;5.15;;
20649;SDS011;10484;48.736;9.332;2023-01-29T14:48:45;9.88;;;4.50;;
20649;SDS011;10484;48.736;9.332;2023-01-29T14:50:40;6.97;;;5.25;;
20649;SDS011;10484;48.736;9.332;2023-01-29T14:55:39;6.57;;;5.37;;
20649;SDS011;10484;48.736;9.332;2023-01-29T14:58:15;8.45;;;5.55;;
20649;SDS011;10484;48.736;9.332;2023-01-29T15:00:48;5.45;;;4.00;;
20649;SDS011;10484;48.736;9.332;2023-01-29T15:03:40;8.63;;;4.95;;
20649;SDS011;10484;48.736;9.332;2023-01-29T15:06:08;9.20;;;5.25;;
20649;SDS011;10484;48.736;9.332;2023-01-29T15:08:46;7.03;;;4.75;;
20649;SDS011;10484;48.736;9.332;2023-01-29T15:11:21;10.10;;;6.07;;
20649;SDS011;10484;48.736;9.332;2023-01-29T15:20:24;11.13;;;6.30;;
20649;SDS011;10484;48.736;9.332;2023-01-29T15:22:55;7.57;;;5.28;;
20649;SDS011;10484;48.736;9.332;2023-01-29T15:25:21;7.63;;;5.50;;
20649;SDS011;10484;48.736;9.332;2023-01-29T15:27:47;8.30;;;4.95;;
20649;SDS011;10484;48.736;9.332;2023-01-29T15:30:14;6.80;;;5.47;;
20649;SDS011;10484;48.736;9.332;2023-01-29T15:32:46;8.20;;;4.97;;
20649;SDS011;10484;48.736;9.332;2023-01-29T15:38:22;9.57;;;4.95;;
20649;SDS011;10484;48.736;9.332;2023-01-29T15:43:19;8.02;;;5.07;;
20649;SDS011;10484;48.736;9.332;2023-01-29T15:45:47;7.97;;;5.32;;
20649;SDS011;10484;48.736;9.332;2023-01-29T15:48:16;8.07;;;5.18;;
20649;SDS011;10484;48.736;9.332;2023-01-29T15:50:44;8.73;;;5.70;;
20649;SDS011;10484;48.736;9.332;2023-01-29T15:53:13;7.15;;;4.65;;
20649;SDS011;10484;48.736;9.332;2023-01-29T15:55:43;8.02;;;5.18;;
20649;SDS011;10484;48.736;9.332;2023-01-29T15:58:20;7.00;;;4.50;;
20649;SDS011;10484;48.736;9.332;2023-01-29T16:00:52;6.22;;;4.57;;
20649;SDS011;10484;48.736;9.332;2023-01-29T16:03:24;7.50;;;4.65;;
20649;SDS011;10484;48.736;9.332;2023-01-29T16:05:52;9.13;;;5.00;;
20649;SDS011;10484;48.736;9.332;2023-01-29T16:08:22;8.02;;;5.50;;
20649;SDS011;10484;48.736;9.332;2023-01-29T16:10:59;7.38;;;5.38;;
20649;SDS011;10484;48.736;9.332;2023-01-29T16:13:32;9.00;;;5.68;;
20649;SDS011;10484;48.736;9.332;2023-01-29T16:18:47;8.35;;;5.28;;
20649;SDS011;10484;48.736;9.332;2023-01-29T16:21:23;7.97;;;5.93;;
20649;SDS011;10484;48.736;9.332;2023-01-29T16:24:10;6.75;;;5.20;;
20649;SDS011;10484;48.736;9.332;2023-01-29T16:26:43;9.32;;;5.00;;
20649;SDS011;10484;48.736;9.332;2023-01-29T16:29:15;6.63;;;5.03;;
20649;SDS011;10484;48.736;9.332;2023-01-29T16:31:43;8.10;;;5.38;;
20649;SDS011;10484;48.736;9.332;2023-01-29T16:34:24;6.25;;;4.57;;
20649;SDS011;10484;48.736;9.332;2023-01-29T16:36:53;6.15;;;4.40;;
20649;SDS011;10484;48.736;9.332;2023-01-29T16:39:27;7.57;;;4.97;;
20649;SDS011;10484;48.736;9.332;2023-01-29T16:47:30;6.88;;;4.47;;
20649;SDS011;10484;48.736;9.332;2023-01-29T16:52:41;6.55;;;4.63;;
20649;SDS011;10484;48.736;9.332;2023-01-29T16:55:24;7.68;;;4.00;;
20649;SDS011;10484;48.736;9.332;2023-01-29T16:57:56;8.88;;;5.07;;
20649;SDS011;10484;48.736;9.332;2023-01-29T17:00:27;7.05;;;5.20;;
20649;SDS011;10484;48.736;9.332;2023-01-29T17:02:55;7.30;;;4.75;;
20649;SDS011;10484;48.736;9.332;2023-01-29T17:05:27;5.97;;;4.47;;
20649;SDS011;10484;48.736;9.332;2023-01-29T17:07:56;10.88;;;6.20;;
20649;SDS011;10484;48.736;9.332;2023-01-29T17:10:22;8.90;;;5.25;;
20649;SDS011;10484;48.736;9.332;2023-01-29T17:12:54;9.48;;;5.53;;
20649;SDS011;10484;48.736;9.332;2023-01-29T17:18:22;10.40;;;6.80;;
20649;SDS011;10484;48.736;9.332;2023-01-29T17:20:49;12.20;;;9.20;;
20649;SDS011;10484;48.736;9.332;2023-01-29T17:23:17;15.57;;;8.95;;
20649;SDS011;10484;48.736;9.332;2023-01-29T17:25:42;12.88;;;8.80;;
20649;SDS011;10484;48.736;9.332;2023-01-29T17:28:13;19.65;;;10.32;;
20649;SDS011;10484;48.736;9.332;2023-01-29T17:30:40;20.10;;;9.20;;
20649;SDS011;10484;48.736;9.332;2023-01-29T17:33:13;22.93;;;10.60;;
20649;SDS011;10484;48.736;9.332;2023-01-29T17:35:41;26.15;;;14.70;;
20649;SDS011;10484;48.736;9.332;2023-01-29T17:38:09;24.92;;;13.60;;
20649;SDS011;10484;48.736;9.332;2023-01-29T17:43:05;18.38;;;10.95;;
20649;SDS011;10484;48.736;9.332;2023-01-29T17:45:31;24.27;;;12.90;;